createdAt,value
2018-07-01T00:03:53.993Z,43.90
2018-07-01T00:06:22.469Z,44.20
2018-07-01T00:08:50.982Z,44.70
2018-07-01T00:11:19.490Z,44.70
2018-07-01T00:13:47.929Z,45.10
2018-07-01T00:16:16.437Z,44.90
2018-07-01T00:18:44.940Z,45.20
2018-07-01T00:21:13.389Z,45.60
2018-07-01T00:23:41.827Z,45.80
2018-07-01T00:26:10.289Z,46.20
2018-07-01T00:31:06.909Z,47.00
2018-07-01T00:33:35.319Z,47.60
2018-07-01T00:38:31.982Z,48.60
2018-07-01T00:41:00.442Z,49.00
2018-07-01T00:43:28.905Z,49.20
2018-07-01T00:45:57.362Z,49.40
2018-07-01T00:48:25.800Z,49.70
2018-07-01T00:50:54.225Z,50.20
2018-07-01T00:55:57.312Z,50.90
2018-07-01T00:58:25.736Z,51.80
2018-07-01T01:00:54.156Z,52.10
2018-07-01T01:03:22.580Z,52.30
2018-07-01T01:05:51.008Z,52.60
2018-07-01T01:08:19.441Z,53.20
2018-07-01T01:10:47.880Z,54.30
2018-07-01T01:13:16.366Z,55.50
2018-07-01T01:15:44.785Z,54.60
2018-07-01T01:18:13.252Z,55.10
2018-07-01T01:20:41.675Z,55.60
2018-07-01T01:23:10.080Z,56.30
2018-07-01T01:25:38.493Z,56.30
2018-07-01T01:30:35.040Z,57.90
2018-07-01T01:33:03.549Z,58.70
2018-07-01T01:35:32.053Z,60.30
2018-07-01T01:38:00.501Z,60.30
2018-07-01T01:40:33.104Z,61.20
2018-07-01T01:43:06.056Z,62.10
2018-07-01T01:45:38.765Z,62.20
2018-07-01T01:48:11.037Z,62.10
2018-07-01T01:50:43.929Z,63.10
2018-07-01T01:53:18.344Z,64.10
2018-07-01T01:55:54.204Z,65.40
2018-07-01T01:58:29.192Z,66.20
2018-07-01T02:01:08.955Z,67.60
2018-07-01T02:03:44.430Z,67.60
2018-07-01T02:06:16.804Z,69.10
2018-07-01T02:08:49.112Z,71.40
2018-07-01T02:17:20.365Z,74.00
2018-07-01T02:19:49.084Z,76.00
2018-07-01T02:22:21.333Z,76.90
2018-07-01T02:24:50.755Z,77.50
2018-07-01T02:27:19.209Z,77.10
2018-07-01T02:29:47.684Z,79.60
2018-07-01T02:32:16.113Z,81.40
2018-07-01T02:34:44.572Z,83.20
2018-07-01T02:37:13.050Z,83.50
2018-07-01T02:39:41.573Z,84.00
2018-07-01T02:42:10.033Z,84.10
2018-07-01T02:44:38.565Z,85.00
2018-07-01T02:52:03.205Z,89.80
2018-07-01T02:54:31.648Z,90.30
2018-07-01T02:57:00.099Z,91.20
2018-07-01T02:59:28.532Z,92.20
2018-07-01T03:06:53.202Z,92.50
2018-07-01T03:09:21.633Z,92.10
2018-07-01T03:11:50.025Z,91.70
2018-07-01T03:14:18.456Z,92.10
2018-07-01T03:16:46.864Z,91.70
2018-07-01T03:21:43.385Z,92.50
2018-07-01T03:24:12.196Z,92.00
2018-07-01T03:26:40.596Z,91.90
2018-07-01T03:29:09.016Z,91.70
2018-07-01T03:31:37.458Z,91.90
2018-07-01T03:34:05.908Z,91.40
2018-07-01T03:39:02.505Z,91.00
2018-07-01T03:41:31.308Z,92.00
2018-07-01T03:43:59.744Z,91.90
2018-07-01T03:46:28.172Z,91.40
2018-07-01T03:48:56.580Z,91.90
2018-07-01T03:51:25.021Z,92.30
2018-07-01T03:53:53.429Z,92.20
2018-07-01T03:56:21.928Z,93.70
2018-07-01T03:58:50.344Z,93.00
2018-07-01T04:01:18.772Z,92.90
2018-07-01T04:03:47.201Z,94.00
2018-07-01T04:06:15.678Z,93.80
2018-07-01T04:08:44.109Z,93.70
2018-07-01T04:13:40.632Z,94.30
2018-07-01T04:16:09.078Z,93.70
2018-07-01T04:18:37.480Z,94.80
2018-07-01T04:21:06.273Z,94.70
2018-07-01T04:23:34.729Z,94.50
2018-07-01T04:26:03.251Z,93.80
2018-07-01T04:28:31.660Z,93.70
2018-07-01T04:31:00.136Z,94.10
2018-07-01T04:35:56.716Z,94.40
2018-07-01T04:38:25.421Z,95.00
2018-07-01T04:40:53.840Z,95.10
2018-07-01T04:43:22.326Z,94.70
2018-07-01T04:45:50.800Z,95.40
2018-07-01T04:48:19.256Z,95.20
2018-07-01T04:50:47.663Z,96.00
2018-07-01T04:53:16.077Z,96.00
2018-07-01T04:55:44.505Z,95.60
2018-07-01T05:00:41.020Z,95.70
2018-07-01T05:03:09.449Z,95.00
2018-07-01T05:05:37.852Z,93.60
2018-07-01T05:08:06.364Z,91.90
2018-07-01T05:10:34.760Z,92.20
2018-07-01T05:13:03.176Z,92.60
2018-07-01T05:15:31.618Z,93.40
2018-07-01T05:18:00.023Z,92.40
2018-07-01T05:20:28.439Z,92.80
2018-07-01T05:22:56.852Z,93.60
2018-07-01T05:27:53.361Z,90.70
2018-07-01T05:30:21.831Z,90.70
2018-07-01T05:32:50.260Z,86.90
2018-07-01T05:35:18.787Z,76.60
2018-07-01T05:37:47.213Z,69.30
2018-07-01T05:42:43.728Z,61.10
2018-07-01T05:45:12.181Z,58.50
2018-07-01T05:47:40.633Z,57.60
2018-07-01T05:50:09.092Z,55.40
2018-07-01T05:52:37.534Z,53.50
2018-07-01T05:55:05.969Z,50.70
2018-07-01T05:57:34.392Z,49.30
2018-07-01T06:00:02.861Z,50.90
2018-07-01T06:02:31.312Z,48.80
2018-07-01T06:04:59.764Z,48.80
2018-07-01T06:09:56.308Z,48.50
2018-07-01T06:12:24.752Z,49.00
2018-07-01T06:14:53.190Z,46.70
2018-07-01T06:17:21.609Z,45.70
2018-07-01T06:19:50.084Z,46.90
2018-07-01T06:22:18.517Z,46.20
2018-07-01T06:24:46.942Z,45.10
2018-07-01T06:27:15.365Z,43.60
2018-07-01T06:32:11.893Z,44.10
2018-07-01T06:34:40.322Z,42.70
2018-07-01T06:37:08.765Z,41.50
2018-07-01T06:39:37.174Z,40.00
2018-07-01T06:42:05.690Z,40.80
2018-07-01T06:44:34.113Z,40.00
2018-07-01T06:47:02.543Z,39.20
2018-07-01T06:49:31.042Z,41.80
2018-07-01T06:51:59.421Z,41.10
2018-07-01T06:54:27.874Z,41.10
2018-07-01T06:56:56.369Z,40.30
2018-07-01T06:59:24.781Z,41.20
2018-07-01T07:01:53.252Z,40.20
2018-07-01T07:04:21.693Z,40.90
2018-07-01T07:06:50.116Z,38.90
2018-07-01T07:09:18.554Z,39.80
2018-07-01T07:11:47.005Z,39.00
2018-07-01T07:14:15.464Z,40.40
2018-07-01T07:16:43.897Z,39.90
2018-07-01T07:19:12.335Z,39.20
2018-07-01T07:21:40.789Z,38.70
2018-07-01T07:24:09.200Z,39.80
2018-07-01T07:26:37.645Z,38.70
2018-07-01T07:29:06.663Z,39.60
2018-07-01T07:31:35.093Z,38.50
2018-07-01T07:34:03.626Z,37.60
2018-07-01T07:36:32.084Z,34.00
2018-07-01T07:39:00.493Z,34.70
2018-07-01T07:41:28.941Z,33.80
2018-07-01T07:43:57.377Z,34.80
2018-07-01T07:46:25.829Z,34.70
2018-07-01T07:48:54.256Z,34.10
2018-07-01T07:51:22.680Z,34.70
2018-07-01T07:53:51.116Z,34.00
2018-07-01T07:58:47.664Z,32.80
2018-07-01T08:01:16.360Z,32.50
2018-07-01T08:08:41.086Z,31.10
2018-07-01T08:11:09.592Z,30.60
2018-07-01T08:13:38.045Z,30.90
2018-07-01T08:16:06.595Z,30.90
2018-07-01T08:18:35.089Z,30.70
2018-07-01T08:21:03.576Z,30.40
2018-07-01T08:26:00.613Z,30.10
2018-07-01T08:28:29.046Z,30.80
2018-07-01T08:30:57.501Z,29.60
2018-07-01T08:33:25.974Z,29.90
2018-07-01T08:35:54.421Z,30.40
2018-07-01T08:38:22.855Z,29.20
2018-07-01T08:40:51.313Z,30.00
2018-07-01T08:43:19.772Z,27.90
2018-07-01T08:45:48.180Z,28.70
2018-07-01T08:48:16.620Z,28.40
2018-07-01T08:50:45.057Z,27.70
2018-07-01T08:53:13.526Z,27.60
2018-07-01T08:55:41.965Z,27.00
2018-07-01T08:58:10.413Z,28.40
2018-07-01T09:00:38.889Z,27.30
2018-07-01T09:03:07.341Z,26.70
2018-07-01T09:05:35.768Z,24.10
2018-07-01T09:08:04.268Z,24.30
2018-07-01T09:10:32.682Z,26.00
2018-07-01T09:13:01.121Z,26.20
2018-07-01T09:15:29.553Z,24.10
2018-07-01T09:17:57.988Z,24.30
2018-07-01T09:25:22.804Z,25.30
2018-07-01T09:30:19.341Z,24.00
2018-07-01T09:32:47.803Z,24.50
2018-07-01T09:35:16.265Z,25.30
2018-07-01T09:37:44.705Z,23.90
2018-07-01T09:40:13.180Z,24.80
2018-07-01T09:42:41.600Z,23.40
2018-07-01T09:45:10.077Z,23.90
2018-07-01T09:47:38.506Z,23.60
2018-07-01T09:50:06.986Z,23.40
2018-07-01T09:52:35.417Z,23.70
2018-07-01T09:55:04.171Z,23.20
2018-07-01T09:57:32.640Z,22.50
2018-07-01T10:00:01.142Z,23.20
2018-07-01T10:02:29.618Z,22.30
2018-07-01T10:04:58.052Z,23.70
2018-07-01T10:07:26.486Z,23.50
2018-07-01T10:09:54.925Z,23.10
2018-07-01T10:14:51.917Z,22.80
2018-07-01T10:17:20.489Z,22.50
2018-07-01T10:19:48.937Z,21.90
2018-07-01T10:22:17.377Z,22.60
2018-07-01T10:24:45.834Z,21.70
2018-07-01T10:27:14.258Z,22.60
2018-07-01T10:29:42.721Z,23.00
2018-07-01T10:32:11.142Z,22.40
2018-07-01T10:34:39.586Z,22.60
2018-07-01T10:37:08.161Z,22.50
2018-07-01T10:39:36.636Z,22.50
2018-07-01T10:42:05.065Z,23.10
2018-07-01T10:47:01.601Z,21.50
2018-07-01T10:49:30.115Z,21.00
2018-07-01T10:51:58.561Z,21.80
2018-07-01T10:56:55.123Z,23.10
2018-07-01T10:59:23.569Z,23.80
2018-07-01T11:01:52.016Z,21.90
2018-07-01T11:04:20.461Z,21.80
2018-07-01T11:06:49.842Z,22.00
2018-07-01T11:11:46.454Z,21.30
2018-07-01T11:14:14.868Z,20.80
2018-07-01T11:19:11.458Z,19.60
2018-07-01T11:21:39.910Z,19.90
2018-07-01T11:26:36.512Z,20.40
2018-07-01T11:29:04.964Z,20.80
2018-07-01T11:31:33.401Z,20.50
2018-07-01T11:34:01.870Z,20.50
2018-07-01T11:36:31.589Z,20.10
2018-07-01T11:43:56.353Z,21.40
2018-07-01T11:46:24.796Z,20.20
2018-07-01T11:48:53.261Z,19.90
2018-07-01T11:51:21.693Z,20.10
2018-07-01T11:53:50.157Z,20.60
2018-07-01T11:56:18.641Z,19.80
2018-07-01T11:58:47.074Z,19.90
2018-07-01T12:01:15.512Z,19.60
2018-07-01T12:03:43.935Z,19.70
2018-07-01T12:06:12.413Z,18.70
2018-07-01T12:08:40.920Z,19.60
2018-07-01T12:11:09.383Z,20.00
2018-07-01T12:13:37.826Z,19.60
2018-07-01T12:16:06.293Z,19.70
2018-07-01T12:18:34.733Z,19.50
2018-07-01T12:21:03.225Z,20.70
2018-07-01T12:23:31.745Z,21.60
2018-07-01T12:26:00.141Z,20.50
2018-07-01T12:28:28.641Z,19.40
2018-07-01T12:30:57.161Z,20.20
2018-07-01T12:33:25.613Z,19.60
2018-07-01T12:35:54.076Z,20.10
2018-07-01T12:40:50.654Z,20.10
2018-07-01T12:43:19.505Z,20.00
2018-07-01T12:45:47.945Z,19.90
2018-07-01T12:48:16.448Z,19.70
2018-07-01T12:50:44.936Z,19.50
2018-07-01T12:53:13.388Z,19.80
2018-07-01T12:55:41.842Z,19.60
2018-07-01T12:58:10.276Z,20.10
2018-07-01T13:00:38.744Z,20.50
2018-07-01T13:03:07.283Z,20.30
2018-07-01T13:05:35.714Z,18.90
2018-07-01T13:08:04.205Z,19.30
2018-07-01T13:13:00.754Z,18.60
2018-07-01T13:17:57.396Z,17.30
2018-07-01T13:20:25.824Z,18.90
2018-07-01T13:22:54.281Z,18.70
2018-07-01T13:25:22.697Z,18.30
2018-07-01T13:27:51.134Z,19.30
2018-07-01T13:30:19.603Z,18.90
2018-07-01T13:35:16.165Z,18.80
2018-07-01T13:37:44.617Z,18.50
2018-07-01T13:40:13.085Z,19.70
2018-07-01T13:42:41.546Z,20.20
2018-07-01T13:45:10.461Z,20.00
2018-07-01T13:47:39.236Z,19.90
2018-07-01T13:50:08.661Z,20.20
2018-07-01T13:52:37.093Z,20.70
2018-07-01T13:55:05.686Z,20.00
2018-07-01T13:57:34.166Z,20.30
2018-07-01T14:00:02.725Z,20.30
2018-07-01T14:02:31.157Z,20.60
2018-07-01T14:07:27.721Z,21.20
2018-07-01T14:09:56.144Z,20.20
2018-07-01T14:12:24.589Z,20.80
2018-07-01T14:14:53.025Z,20.40
2018-07-01T14:17:21.472Z,20.20
2018-07-01T14:19:49.949Z,20.60
2018-07-01T14:22:18.389Z,20.50
2018-07-01T14:27:14.975Z,20.20
2018-07-01T14:29:43.432Z,20.00
2018-07-01T14:34:39.978Z,20.80
2018-07-01T14:37:08.452Z,21.20
2018-07-01T14:42:05.026Z,21.50
2018-07-01T14:44:33.478Z,21.10
2018-07-01T14:47:01.926Z,21.60
2018-07-01T14:49:30.355Z,21.30
2018-07-01T14:51:58.801Z,21.30
2018-07-01T14:56:55.376Z,21.20
2018-07-01T14:59:23.800Z,20.70
2018-07-01T15:01:52.246Z,20.30
2018-07-01T15:04:20.692Z,20.50
2018-07-01T15:09:17.260Z,20.80
2018-07-01T15:11:45.669Z,20.60
2018-07-01T15:14:14.121Z,21.50
2018-07-01T15:16:42.553Z,21.70
2018-07-01T15:19:10.986Z,21.50
2018-07-01T15:21:39.409Z,22.00
2018-07-01T15:24:10.148Z,21.10
2018-07-01T15:26:39.569Z,21.80
2018-07-01T15:29:08.061Z,21.10
2018-07-01T15:31:36.513Z,21.40
2018-07-01T15:34:04.982Z,21.00
2018-07-01T15:36:33.705Z,20.90
2018-07-01T15:39:02.199Z,21.10
2018-07-01T15:41:30.654Z,20.80
2018-07-01T15:43:59.064Z,20.90
2018-07-01T15:46:27.498Z,21.40
2018-07-01T15:48:55.913Z,21.20
2018-07-01T15:51:24.362Z,21.00
2018-07-01T15:53:52.760Z,21.00
2018-07-01T15:56:21.165Z,21.60
2018-07-01T15:58:49.608Z,21.70
2018-07-01T16:01:18.105Z,21.70
2018-07-01T16:03:46.739Z,21.90
2018-07-01T16:06:15.181Z,21.90
2018-07-01T16:08:43.620Z,22.30
2018-07-01T16:11:12.061Z,21.40
2018-07-01T16:13:40.510Z,21.90
2018-07-01T16:16:08.953Z,21.30
2018-07-01T16:18:37.380Z,20.40
2018-07-01T16:21:05.997Z,21.60
2018-07-01T16:23:34.445Z,21.80
2018-07-01T16:26:08.191Z,22.20
2018-07-01T16:28:40.567Z,22.60
2018-07-01T16:31:09.204Z,22.70
2018-07-01T16:33:37.612Z,22.70
2018-07-01T16:36:06.080Z,22.60
2018-07-01T16:38:34.538Z,22.30
2018-07-01T16:41:03.054Z,23.00
2018-07-01T16:43:31.438Z,23.10
2018-07-01T16:45:59.909Z,23.50
2018-07-01T16:48:28.430Z,23.20
2018-07-01T16:50:56.891Z,23.20
2018-07-01T16:53:25.305Z,22.50
2018-07-01T16:55:53.733Z,22.80
2018-07-01T17:00:50.273Z,22.60
2018-07-01T17:03:18.697Z,22.90
2018-07-01T17:05:47.113Z,22.70
2018-07-01T17:08:15.553Z,22.00
2018-07-01T17:10:44.008Z,22.10
2018-07-01T17:13:12.467Z,22.50
2018-07-01T17:15:40.857Z,22.90
2018-07-01T17:20:37.648Z,22.80
2018-07-01T17:23:06.136Z,22.60
2018-07-01T17:25:38.776Z,22.80
2018-07-01T17:28:07.217Z,22.30
2018-07-01T17:30:35.884Z,22.50
2018-07-01T17:33:09.697Z,22.20
2018-07-01T17:35:38.117Z,22.90
2018-07-01T17:38:06.583Z,22.40
2018-07-01T17:43:03.139Z,22.30
2018-07-01T17:45:31.603Z,22.10
2018-07-01T17:48:00.032Z,22.10
2018-07-01T17:50:28.482Z,22.80
2018-07-01T17:52:56.901Z,22.10
2018-07-01T17:55:25.431Z,22.10
2018-07-01T18:00:21.969Z,23.20
2018-07-01T18:02:50.387Z,23.50
2018-07-01T18:05:18.888Z,23.90
2018-07-01T18:07:47.353Z,23.60
2018-07-01T18:10:15.824Z,23.30
2018-07-01T18:12:44.288Z,23.40
2018-07-01T18:17:40.813Z,23.90
2018-07-01T18:20:09.249Z,24.20
2018-07-01T18:23:09.757Z,24.40
2018-07-01T18:25:10.812Z,24.30
2018-07-01T18:30:03.774Z,24.80
2018-07-01T18:32:32.541Z,25.10
2018-07-01T18:35:00.964Z,25.40
2018-07-01T18:37:29.441Z,25.30
2018-07-01T18:39:58.153Z,25.60
2018-07-01T18:42:26.657Z,25.80
2018-07-01T18:44:55.137Z,25.80
2018-07-01T18:47:23.568Z,26.20
2018-07-01T18:49:52.045Z,26.50
2018-07-01T18:52:20.460Z,26.40
2018-07-01T18:54:49.133Z,26.40
2018-07-01T18:59:50.429Z,27.10
2018-07-01T19:02:18.889Z,27.70
2018-07-01T19:04:47.333Z,28.00
2018-07-01T19:07:16.204Z,28.40
2018-07-01T19:09:44.838Z,28.50
2018-07-01T19:12:13.489Z,28.70
2018-07-01T19:14:41.959Z,29.00
2018-07-01T19:17:10.421Z,29.20
2018-07-01T19:19:38.909Z,29.40
2018-07-01T19:22:07.485Z,29.50
2018-07-01T19:24:35.923Z,29.80
2018-07-01T19:27:04.478Z,30.10
2018-07-01T19:29:33.036Z,30.40
2018-07-01T19:32:01.449Z,30.90
2018-07-01T19:34:29.953Z,31.40
2018-07-01T19:36:58.393Z,31.10
2018-07-01T19:39:26.869Z,31.70
2018-07-01T19:41:55.342Z,31.70
2018-07-01T19:44:23.912Z,32.10
2018-07-01T19:46:52.582Z,32.70
2018-07-01T19:49:21.110Z,33.20
2018-07-01T19:51:49.582Z,33.80
2018-07-01T19:54:18.023Z,34.60
2018-07-01T19:56:46.465Z,33.40
2018-07-01T19:59:14.955Z,33.80
2018-07-01T20:01:43.574Z,33.80
2018-07-01T20:04:12.247Z,33.90
2018-07-01T20:06:40.709Z,33.60
2018-07-01T20:09:09.966Z,33.90
2018-07-01T20:11:38.426Z,34.10
2018-07-01T20:14:07.455Z,34.20
2018-07-01T20:16:35.990Z,34.00
2018-07-01T20:19:04.701Z,34.30
2018-07-01T20:21:33.526Z,34.80
2018-07-01T20:24:02.057Z,33.90
2018-07-01T20:26:30.516Z,34.50
2018-07-01T20:28:59.128Z,34.40
2018-07-01T20:31:27.633Z,34.50
2018-07-01T20:33:56.225Z,34.40
2018-07-01T20:36:25.246Z,35.10
2018-07-01T20:38:54.717Z,34.40
2018-07-01T20:41:23.416Z,34.40
2018-07-01T20:43:51.898Z,35.20
2018-07-01T20:46:20.386Z,34.20
2018-07-01T20:48:48.814Z,34.50
2018-07-01T20:51:17.293Z,35.10
2018-07-01T20:53:45.832Z,35.10
2018-07-01T20:56:14.606Z,35.50
2018-07-01T20:58:43.307Z,36.40
2018-07-01T21:01:11.782Z,36.80
2018-07-01T21:03:40.247Z,36.80
2018-07-01T21:06:09.013Z,36.20
2018-07-01T21:08:37.557Z,36.30
2018-07-01T21:11:06.076Z,36.20
2018-07-01T21:13:34.655Z,36.60
2018-07-01T21:16:03.283Z,37.20
2018-07-01T21:18:31.779Z,37.20
2018-07-01T21:21:00.237Z,36.90
2018-07-01T21:23:28.669Z,37.30
2018-07-01T21:25:57.128Z,37.30
2018-07-01T21:28:25.623Z,37.50
2018-07-01T21:30:54.242Z,38.00
2018-07-01T21:33:22.734Z,38.40
2018-07-01T21:35:51.820Z,39.20
2018-07-01T21:38:20.351Z,39.10
2018-07-01T21:40:48.807Z,39.60
2018-07-01T21:43:17.284Z,39.70
2018-07-01T21:45:45.802Z,40.00
2018-07-01T21:48:14.460Z,40.20
2018-07-01T21:50:43.131Z,40.10
2018-07-01T21:53:11.642Z,39.70
2018-07-01T21:55:40.107Z,40.40
2018-07-01T21:58:08.601Z,40.20
2018-07-01T22:03:05.630Z,41.20
2018-07-01T22:05:34.672Z,40.60
2018-07-01T22:08:03.350Z,40.80
2018-07-01T22:10:43.260Z,41.00
2018-07-01T22:14:23.225Z,40.90
2018-07-01T22:16:51.752Z,41.20
2018-07-01T22:19:20.706Z,41.90
2018-07-01T22:21:50.386Z,42.30
